Time;durP1;ratioP1;P1;durP2;ratioP2;P2;SDS_P1;SDS_P2;PMS_P1;PMS_P2;Temp;Humidity;BMP_temperature;BMP_pressure;BME280_temperature;BME280_humidity;BME280_pressure;Samples;Min_cycle;Max_cycle;Signal;HPM_P1;HPM_P2
2022/07/21 00:01:45;;;;;;;5.53;4.55;;;;;;;24.26;41.89;96518.47;10146085;28;96914;-65
2022/07/21 00:06:50;;;;;;;4.15;3.70;;;;;;;24.33;41.70;96523.72;10137357;28;96792;-63
2022/07/21 00:11:53;;;;;;;4.38;3.80;;;;;;;24.31;41.76;96523.94;10135731;28;98770;-64
2022/07/21 00:16:56;;;;;;;8.05;4.32;;;;;;;24.30;42.21;96519.66;10138017;28;97517;-63
2022/07/21 00:22:00;;;;;;;5.15;4.65;;;;;;;24.23;42.94;96521.63;10136190;28;96896;-64
2022/07/21 00:27:03;;;;;;;7.90;4.85;;;;;;;24.27;42.96;96520.13;10150958;28;96963;-63
2022/07/21 00:32:06;;;;;;;5.17;4.67;;;;;;;24.23;42.66;96516.28;10153368;28;96889;-64
2022/07/21 00:37:11;;;;;;;4.80;3.90;;;;;;;24.15;42.33;96516.59;10159439;28;96925;-63
2022/07/21 00:42:22;;;;;;;4.65;3.88;;;;;;;24.18;42.00;96514.28;10149784;28;97863;-63
2022/07/21 00:47:27;;;;;;;5.60;4.10;;;;;;;24.14;42.54;96518.47;10145827;28;98088;-63
2022/07/21 00:52:31;;;;;;;5.53;4.15;;;;;;;24.02;42.77;96517.56;10133784;28;96971;-64
2022/07/21 00:57:34;;;;;;;5.20;4.10;;;;;;;24.03;42.90;96525.34;10105155;28;97170;-64
2022/07/21 01:02:37;;;;;;;5.57;4.43;;;;;;;24.01;42.81;96522.09;10129021;28;96768;-65
2022/07/21 01:07:43;;;;;;;5.03;4.53;;;;;;;23.92;43.29;96524.25;10130652;28;96933;-64
2022/07/21 01:12:46;;;;;;;6.97;5.20;;;;;;;23.79;43.90;96516.41;10121301;28;96948;-64
2022/07/21 01:17:49;;;;;;;6.73;5.87;;;;;;;23.69;45.25;96524.97;10123805;28;97202;-63
2022/07/21 01:22:56;;;;;;;7.18;6.47;;;;;;;23.64;46.29;96518.69;10124112;28;98962;-64
2022/07/21 01:27:59;;;;;;;9.60;6.60;;;;;;;23.59;46.98;96516.66;10125994;28;97071;-63
2022/07/21 01:33:02;;;;;;;7.10;5.57;;;;;;;23.51;46.81;96514.28;10123700;28;96821;-64
2022/07/21 01:41:28;;;;;;;7.40;5.65;;;;;;;23.41;46.93;96512.16;10128846;28;97106;-63
2022/07/21 01:43:29;;;;;;;5.05;4.32;;;;;;;23.27;46.32;96511.50;10121660;28;96858;-64
2022/07/21 01:48:32;;;;;;;6.90;4.05;;;;;;;23.22;45.61;96507.81;10125644;28;96881;-63
2022/07/21 01:53:37;;;;;;;5.40;3.83;;;;;;;23.13;45.30;96512.63;10120410;28;99283;-63
2022/07/21 01:58:40;;;;;;;5.95;4.93;;;;;;;23.00;46.20;96506.38;10128709;28;97562;-64
2022/07/21 02:03:44;;;;;;;5.85;4.90;;;;;;;22.89;46.83;96514.28;10129436;28;98135;-64
2022/07/21 02:08:48;;;;;;;6.07;4.40;;;;;;;22.82;46.61;96509.00;10118198;28;97221;-64
2022/07/21 02:13:51;;;;;;;7.10;4.10;;;;;;;22.71;46.52;96507.88;10128446;28;96934;-63
2022/07/21 02:18:54;;;;;;;7.20;4.38;;;;;;;22.52;46.96;96507.00;10124425;28;96750;-64
2022/07/21 02:23:59;;;;;;;5.63;4.43;;;;;;;22.28;48.22;96508.56;10127827;28;96928;-63
2022/07/21 02:29:02;;;;;;;5.60;4.13;;;;;;;22.10;48.30;96501.34;10122506;28;98009;-64
2022/07/21 02:34:06;;;;;;;6.32;4.50;;;;;;;21.96;48.96;96505.09;10118186;28;96838;-63
2022/07/21 02:39:10;;;;;;;5.67;4.43;;;;;;;21.68;49.59;96508.94;10131159;28;96849;-63
2022/07/21 02:44:13;;;;;;;;;;;;;;;21.46;49.98;96511.81;10128874;28;99362;-63
2022/07/21 02:49:16;;;;;;;5.78;5.05;;;;;;;21.34;50.27;96508.19;10132559;28;97130;-63
2022/07/21 02:54:20;;;;;;;6.60;4.32;;;;;;;21.24;50.61;96510.47;10133555;28;97630;-63
2022/07/21 02:59:24;;;;;;;5.90;4.40;;;;;;;21.14;50.45;96508.25;10133664;28;96826;-64
2022/07/21 03:04:27;;;;;;;6.15;4.32;;;;;;;21.08;51.09;96515.19;10126612;28;97337;-63
2022/07/21 03:09:32;;;;;;;5.03;4.40;;;;;;;20.94;50.80;96506.44;10119112;28;96956;-63
2022/07/21 03:14:34;;;;;;;6.07;4.78;;;;;;;20.87;51.27;96502.16;10124795;28;96851;-63
2022/07/21 03:19:37;;;;;;;6.20;4.32;;;;;;;20.64;51.81;96503.38;10133939;28;96915;-63
2022/07/21 03:24:42;;;;;;;5.68;4.50;;;;;;;20.56;51.83;96508.88;10132622;28;96790;-63
2022/07/21 03:29:45;;;;;;;5.70;5.05;;;;;;;20.49;52.20;96510.72;10120299;28;96906;-64
2022/07/21 03:34:48;;;;;;;6.07;5.13;;;;;;;20.39;52.97;96513.78;10131208;28;97283;-67
2022/07/21 03:39:52;;;;;;;6.78;4.60;;;;;;;20.22;53.80;96508.06;10117364;28;98307;-63
2022/07/21 03:44:55;;;;;;;5.68;4.85;;;;;;;20.15;53.69;96504.56;10128363;28;96789;-63
2022/07/21 03:49:58;;;;;;;6.10;4.93;;;;;;;20.11;54.60;96505.97;10132018;28;97378;-64
2022/07/21 03:55:08;;;;;;;6.55;4.68;;;;;;;19.91;55.23;96503.28;10134067;28;96812;-64
2022/07/21 04:00:19;;;;;;;5.47;4.93;;;;;;;19.74;55.50;96493.00;10112297;28;96800;-63
2022/07/21 04:05:22;;;;;;;6.20;5.57;;;;;;;19.61;56.11;96499.09;10126225;28;97239;-63
2022/07/21 04:10:28;;;;;;;6.13;5.50;;;;;;;19.49;57.58;96505.13;10117111;28;96906;-63
2022/07/21 04:15:32;;;;;;;6.45;5.15;;;;;;;19.40;56.77;96520.38;10118429;28;99029;-63
2022/07/21 04:20:36;;;;;;;8.10;5.03;;;;;;;19.34;56.74;96515.88;10131412;28;96962;-63
2022/07/21 04:25:40;;;;;;;7.47;5.00;;;;;;;19.40;56.37;96507.13;10130212;28;96808;-63
2022/07/21 04:30:43;;;;;;;7.00;4.63;;;;;;;19.36;57.17;96508.56;10123916;28;97064;-63
2022/07/21 04:35:46;;;;;;;6.40;4.53;;;;;;;19.34;56.08;96518.53;10132319;28;96941;-63
2022/07/21 04:40:50;;;;;;;8.70;4.85;;;;;;;19.39;55.62;96522.22;10126952;28;98515;-64
2022/07/21 04:45:53;;;;;;;5.32;4.47;;;;;;;19.43;55.95;96525.28;10125543;28;97853;-64
2022/07/21 04:50:56;;;;;;;6.03;4.55;;;;;;;19.50;56.42;96530.63;10127122;28;97279;-63
2022/07/21 04:56:01;;;;;;;7.10;4.85;;;;;;;19.49;56.25;96527.16;10114803;28;98089;-63
2022/07/21 05:01:04;;;;;;;7.20;5.15;;;;;;;19.51;57.28;96525.13;10113013;28;97974;-64
2022/07/21 05:06:07;;;;;;;7.22;4.85;;;;;;;19.63;56.94;96528.84;10110680;28;97671;-63
2022/07/21 05:11:11;;;;;;;9.60;5.07;;;;;;;19.71;57.16;96525.19;10123883;28;96752;-63
2022/07/21 05:16:14;;;;;;;7.28;5.25;;;;;;;19.77;57.19;96531.56;10125833;28;97234;-63
2022/07/21 05:21:17;;;;;;;8.98;4.82;;;;;;;19.88;56.65;96531.00;10131681;28;96803;-63
2022/07/21 05:26:22;;;;;;;5.88;4.78;;;;;;;20.02;56.53;96526.56;10125836;28;97139;-63
2022/07/21 05:31:24;;;;;;;;;;;;;;;20.14;56.12;96537.41;10128317;28;97826;-64
2022/07/21 05:36:28;;;;;;;5.78;4.75;;;;;;;20.22;56.05;96537.22;10130335;28;97093;-63
2022/07/21 05:41:32;;;;;;;12.02;5.50;;;;;;;20.41;56.54;96534.78;10125093;28;97103;-64
2022/07/21 05:46:35;;;;;;;8.52;5.32;;;;;;;20.56;56.08;96541.56;10127263;28;98060;-63
2022/07/21 05:51:38;;;;;;;7.70;5.40;;;;;;;20.71;57.07;96540.53;10123039;28;97718;-63
2022/07/21 05:56:42;;;;;;;7.63;5.30;;;;;;;20.92;56.38;96547.50;10125874;28;97280;-64
2022/07/21 06:01:45;;;;;;;8.57;4.95;;;;;;;21.07;55.51;96549.94;10126408;28;97187;-64
2022/07/21 06:06:48;;;;;;;10.57;5.93;;;;;;;21.16;55.74;96558.53;10126697;28;96775;-63
2022/07/21 06:11:52;;;;;;;7.85;5.28;;;;;;;21.28;55.72;96559.53;10135524;28;96831;-63
2022/07/21 06:16:55;;;;;;;;;;;;;;;21.42;55.16;96563.78;10148804;28;97137;-64
2022/07/21 06:21:58;;;;;;;7.55;5.32;;;;;;;21.56;54.81;96563.75;10141622;28;97888;-64
2022/07/21 06:27:03;;;;;;;7.87;5.60;;;;;;;21.72;54.89;96557.97;10132424;28;97098;-65
2022/07/21 06:32:08;;;;;;;7.50;6.63;;;;;;;21.90;54.96;96564.47;10127977;28;96851;-64
2022/07/21 06:37:11;;;;;;;7.20;6.43;;;;;;;22.04;54.97;96568.72;10134215;28;97045;-63
2022/07/21 06:42:15;;;;;;;8.05;6.40;;;;;;;22.14;54.74;96566.38;10136756;28;96792;-64
2022/07/21 06:47:18;;;;;;;7.82;6.50;;;;;;;22.30;55.40;96559.78;10136541;28;97039;-65
2022/07/21 06:52:21;;;;;;;8.85;7.03;;;;;;;22.37;55.40;96560.53;10133323;28;98591;-64
2022/07/21 06:57:25;;;;;;;8.52;6.80;;;;;;;22.46;55.09;96566.44;10131820;28;97396;-63
2022/07/21 07:02:28;;;;;;;8.45;6.60;;;;;;;22.51;54.75;96561.31;10128235;28;98303;-64
2022/07/21 07:07:31;;;;;;;9.40;7.22;;;;;;;22.62;54.82;96563.25;10131989;28;96906;-63
2022/07/21 07:12:36;;;;;;;10.13;7.25;;;;;;;22.76;54.75;96557.84;10135878;28;96745;-63
2022/07/21 07:17:59;;;;;;;8.70;7.80;;;;;;;22.92;54.65;96562.59;10129565;28;96791;-64
2022/07/21 07:23:02;;;;;;;9.10;7.53;;;;;;;23.02;54.65;96566.66;10132704;28;96894;-65
2022/07/21 07:28:08;;;;;;;9.45;6.93;;;;;;;23.17;54.39;96569.78;10134296;28;99294;-64
2022/07/21 07:33:11;;;;;;;8.48;7.65;;;;;;;23.42;53.73;96566.28;10133948;28;96929;-63
2022/07/21 07:38:14;;;;;;;11.43;7.43;;;;;;;23.61;53.06;96570.59;10134281;28;96647;-65
2022/07/21 07:43:19;;;;;;;8.73;7.80;;;;;;;23.76;52.55;96562.22;10109687;28;97912;-64
2022/07/21 07:48:22;;;;;;;7.47;6.45;;;;;;;23.89;51.10;96567.38;10122746;28;96980;-63
2022/07/21 07:53:24;;;;;;;8.02;7.18;;;;;;;23.91;50.92;96565.34;10133513;28;97363;-65
2022/07/21 07:58:29;;;;;;;7.32;6.60;;;;;;;24.07;50.56;96555.06;10134244;28;97786;-64
2022/07/21 08:03:32;;;;;;;8.85;6.70;;;;;;;24.32;49.62;96549.63;10133351;28;96769;-64
2022/07/21 08:08:35;;;;;;;7.53;6.47;;;;;;;24.39;48.97;96554.88;10133325;28;96927;-63
2022/07/21 08:13:40;;;;;;;8.35;6.25;;;;;;;24.63;48.20;96553.88;10131362;28;96996;-64
2022/07/21 08:18:43;;;;;;;7.35;5.65;;;;;;;24.82;47.31;96543.16;10132760;28;96925;-64
2022/07/21 08:23:50;;;;;;;6.53;5.40;;;;;;;24.95;46.90;96542.91;10123964;28;96942;-68
2022/07/21 08:28:57;;;;;;;10.50;5.93;;;;;;;25.02;46.87;96540.13;10123117;28;98430;-65
2022/07/21 08:34:00;;;;;;;6.43;5.72;;;;;;;25.10;45.45;96539.78;10120813;28;97046;-64
2022/07/21 08:39:03;;;;;;;6.32;5.05;;;;;;;24.99;45.20;96532.56;10121778;28;98735;-64
2022/07/21 08:44:10;;;;;;;7.50;6.70;;;;;;;25.13;45.70;96523.28;10126845;28;98712;-63
2022/07/21 08:49:14;;;;;;;9.88;6.53;;;;;;;25.35;45.58;96530.69;10120049;28;96930;-65
2022/07/21 08:54:16;;;;;;;10.60;5.77;;;;;;;25.42;45.17;96532.19;10117238;28;97590;-65
2022/07/21 08:59:22;;;;;;;6.28;5.68;;;;;;;25.57;44.63;96534.41;10122130;28;98071;-65
2022/07/21 09:04:35;;;;;;;8.40;6.60;;;;;;;25.48;44.55;96517.09;10124743;28;96788;-64
2022/07/21 09:09:41;;;;;;;7.47;6.28;;;;;;;25.47;45.08;96523.47;10131472;28;98042;-64
2022/07/21 09:14:45;;;;;;;;;;;;;;;25.62;45.16;96521.16;10129527;28;97288;-63
2022/07/21 09:19:49;;;;;;;8.70;6.25;;;;;;;25.84;44.46;96511.66;10120246;28;96994;-64
2022/07/21 09:24:52;;;;;;;;;;;;;;;26.05;44.31;96507.50;10131251;28;97096;-64
2022/07/21 09:30:00;;;;;;;9.02;6.43;;;;;;;26.11;43.95;96507.34;10130841;28;96876;-64
2022/07/21 09:35:07;;;;;;;9.52;6.13;;;;;;;26.18;43.54;96502.66;10116616;28;96921;-64
2022/07/21 09:40:12;;;;;;;10.60;6.32;;;;;;;26.26;43.57;96496.16;10130493;28;97492;-64
2022/07/21 09:45:19;;;;;;;7.38;6.57;;;;;;;26.29;43.55;96498.34;10132696;28;97057;-64
2022/07/21 09:50:22;;;;;;;7.47;6.20;;;;;;;26.51;43.34;96495.75;10127149;28;97818;-64
2022/07/21 09:55:31;;;;;;;8.32;7.00;;;;;;;26.70;42.84;96492.84;10119869;28;97516;-64
2022/07/21 10:00:35;;;;;;;9.75;6.65;;;;;;;26.86;42.88;96485.84;10126284;28;97271;-64
2022/07/21 10:05:38;;;;;;;11.38;6.88;;;;;;;26.84;42.21;96482.59;10119314;28;96961;-65
2022/07/21 10:10:41;;;;;;;8.53;7.23;;;;;;;26.91;41.80;96483.25;10133916;28;98344;-64
2022/07/21 10:16:07;;;;;;;7.93;6.43;;;;;;;27.06;41.17;96480.81;10127101;28;98166;-64
2022/07/21 10:21:22;;;;;;;7.95;6.43;;;;;;;27.10;40.93;96476.56;10109264;28;97745;-64
2022/07/21 10:26:25;;;;;;;6.88;6.18;;;;;;;27.24;41.31;96465.50;10114837;28;97375;-64
2022/07/21 10:31:29;;;;;;;7.97;6.57;;;;;;;27.43;40.73;96464.13;10114994;28;98348;-65
2022/07/21 10:36:46;;;;;;;7.90;7.10;;;;;;;27.60;40.46;96463.25;10119712;28;99155;-64
2022/07/21 10:41:51;;;;;;;8.73;6.68;;;;;;;27.66;39.87;96470.31;10116967;28;96911;-65
2022/07/21 10:47:04;;;;;;;7.68;6.20;;;;;;;27.73;39.20;96462.06;10116387;28;100671;-64
2022/07/21 10:52:49;;;;;;;7.93;6.28;;;;;;;27.79;38.81;96453.03;10118555;28;97001;-61
2022/07/21 10:58:11;;;;;;;12.00;6.28;;;;;;;28.04;38.47;96457.84;10131718;28;97102;-62
2022/07/21 11:03:18;;;;;;;9.18;6.55;;;;;;;27.93;38.18;96446.19;10137520;28;96884;-62
2022/07/21 11:08:21;;;;;;;7.63;6.18;;;;;;;28.05;38.01;96435.31;10132259;28;97287;-61
2022/07/21 11:13:26;;;;;;;8.27;6.47;;;;;;;28.38;37.44;96436.16;10141114;28;97957;-62
2022/07/21 11:18:32;;;;;;;6.78;5.90;;;;;;;28.49;37.14;96432.47;10125376;28;96886;-62
2022/07/21 11:23:39;;;;;;;8.90;6.18;;;;;;;28.82;36.71;96427.06;10128313;28;96863;-61
2022/07/21 11:28:43;;;;;;;7.63;6.25;;;;;;;28.88;36.32;96429.50;10123079;28;97450;-63
2022/07/21 11:33:48;;;;;;;;;;;;;;;28.87;37.07;96422.50;10126378;28;97212;-64
2022/07/21 11:38:59;;;;;;;7.55;6.30;;;;;;;29.06;36.19;96414.03;10126806;28;96957;-62
2022/07/21 11:44:02;;;;;;;6.80;6.07;;;;;;;29.14;36.07;96405.44;10142349;28;96829;-62
2022/07/21 11:49:07;;;;;;;7.20;5.88;;;;;;;29.15;36.44;96390.94;10146928;28;97233;-62
2022/07/21 11:54:20;;;;;;;6.43;5.70;;;;;;;29.31;35.71;96381.03;10142586;28;97045;-62
2022/07/21 11:59:24;;;;;;;7.55;6.32;;;;;;;29.62;35.16;96379.28;10128054;28;98053;-61
2022/07/21 12:04:31;;;;;;;8.05;6.10;;;;;;;29.67;35.74;96371.22;10149713;28;96853;-62
2022/07/21 12:09:35;;;;;;;7.00;6.28;;;;;;;29.46;35.51;96366.84;10141022;28;96874;-62
2022/07/21 12:14:44;;;;;;;6.22;5.63;;;;;;;29.52;35.12;96361.19;10131514;28;97854;-62
2022/07/21 12:19:48;;;;;;;8.63;6.45;;;;;;;29.55;34.50;96362.56;10129141;28;96808;-62
2022/07/21 12:24:54;;;;;;;8.27;6.10;;;;;;;29.60;35.15;96354.50;10128539;28;97046;-62
2022/07/21 12:29:57;;;;;;;8.93;5.97;;;;;;;29.73;34.39;96351.31;10112999;28;97448;-62
2022/07/21 12:35:02;;;;;;;9.27;6.07;;;;;;;29.91;34.82;96333.00;10127205;28;100555;-63
2022/07/21 12:40:21;;;;;;;5.85;5.35;;;;;;;30.32;34.82;96337.59;10119532;28;96806;-62
2022/07/21 12:45:25;;;;;;;6.57;5.93;;;;;;;30.73;33.80;96346.41;10126021;28;96914;-61
2022/07/21 12:50:31;;;;;;;5.28;4.78;;;;;;;31.07;33.51;96345.78;10122561;28;97068;-62
2022/07/21 12:55:34;;;;;;;6.53;5.70;;;;;;;31.10;33.08;96337.09;10128124;28;96865;-62
2022/07/21 13:00:37;;;;;;;;;;;;;;;31.05;33.80;96339.84;10132054;28;97174;-62
2022/07/21 13:05:41;;;;;;;7.35;5.60;;;;;;;30.92;32.82;96343.13;10130013;28;97050;-63
2022/07/21 13:10:45;;;;;;;6.35;5.75;;;;;;;30.84;32.67;96334.53;10122610;28;97050;-61
2022/07/21 13:15:48;;;;;;;6.07;5.47;;;;;;;31.39;32.11;96322.97;10125696;28;96943;-62
2022/07/21 13:20:53;;;;;;;6.88;5.93;;;;;;;31.82;31.57;96320.53;10125485;28;96766;-62
2022/07/21 13:25:57;;;;;;;5.82;5.30;;;;;;;32.19;31.05;96324.56;10124929;28;96910;-62
2022/07/21 13:31:07;;;;;;;7.75;5.75;;;;;;;32.48;30.57;96321.06;10125758;28;96915;-63
2022/07/21 13:36:13;;;;;;;6.57;5.32;;;;;;;32.72;29.96;96316.50;10124367;28;97472;-63
2022/07/21 13:41:17;;;;;;;6.40;5.60;;;;;;;32.86;30.00;96315.81;10130002;28;96700;-62
2022/07/21 13:46:40;;;;;;;6.50;5.50;;;;;;;32.61;30.78;96304.16;10130382;28;96830;-63
2022/07/21 13:51:45;;;;;;;6.57;5.85;;;;;;;32.94;29.82;96306.22;10128412;28;96780;-62
2022/07/21 13:56:48;;;;;;;6.75;5.40;;;;;;;32.97;30.08;96298.34;10130584;28;96848;-62
2022/07/21 14:01:51;;;;;;;5.45;4.88;;;;;;;33.43;29.82;96303.16;10130186;28;96937;-63
2022/07/21 14:06:56;;;;;;;6.97;5.30;;;;;;;34.00;28.01;96302.28;10129760;28;96870;-62
2022/07/21 14:11:59;;;;;;;6.35;5.45;;;;;;;34.13;27.93;96301.53;10127707;28;98079;-62
2022/07/21 14:17:01;;;;;;;5.78;5.20;;;;;;;33.75;27.70;96298.91;10126828;28;97857;-64
2022/07/21 14:22:06;;;;;;;6.68;5.45;;;;;;;34.18;27.75;96292.56;10129405;28;98104;-62
2022/07/21 14:27:09;;;;;;;5.63;5.00;;;;;;;36.69;25.23;96290.78;10129487;28;97079;-63
2022/07/21 14:32:16;;;;;;;6.10;4.70;;;;;;;39.26;23.09;96288.72;10128751;28;96753;-62
2022/07/21 14:37:20;;;;;;;5.03;4.35;;;;;;;41.62;20.53;96294.28;10135109;28;96865;-65
2022/07/21 14:42:24;;;;;;;4.82;4.00;;;;;;;43.12;19.35;96286.44;10134566;28;96822;-63
2022/07/21 14:47:29;;;;;;;5.97;4.20;;;;;;;44.12;18.45;96286.13;10155568;28;97280;-63
2022/07/21 14:52:34;;;;;;;4.50;4.10;;;;;;;44.82;17.99;96290.50;10145183;28;96855;-63
2022/07/21 14:57:37;;;;;;;4.25;3.83;;;;;;;45.89;16.75;96290.38;10146008;28;98907;-63
2022/07/21 15:02:40;;;;;;;5.93;3.97;;;;;;;46.44;16.26;96293.34;10139448;28;96801;-63
2022/07/21 15:07:45;;;;;;;5.20;3.80;;;;;;;46.03;16.63;96281.47;10148455;28;97115;-64
2022/07/21 15:12:47;;;;;;;4.63;3.85;;;;;;;46.46;16.65;96279.94;10153463;28;96887;-64
2022/07/21 15:17:50;;;;;;;4.47;3.88;;;;;;;47.03;15.86;96278.78;10123784;28;97353;-64
2022/07/21 15:22:55;;;;;;;5.30;3.90;;;;;;;46.56;15.95;96272.91;10123929;28;96757;-65
2022/07/21 15:27:58;;;;;;;5.97;3.80;;;;;;;46.20;15.94;96267.03;10129652;28;97270;-63
2022/07/21 15:33:01;;;;;;;4.25;3.67;;;;;;;46.76;15.35;96270.72;10134147;28;97928;-65
2022/07/21 15:38:05;;;;;;;5.85;3.72;;;;;;;46.23;16.15;96262.75;10128611;28;97475;-64
2022/07/21 15:43:15;;;;;;;4.13;3.47;;;;;;;46.69;15.86;96254.06;10128133;28;98572;-64
2022/07/21 15:48:17;;;;;;;3.88;3.40;;;;;;;46.71;16.14;96262.75;10126023;28;97092;-65
2022/07/21 15:53:22;;;;;;;4.15;3.42;;;;;;;46.46;15.92;96251.53;10098595;28;97002;-64
2022/07/21 15:58:25;;;;;;;3.90;3.47;;;;;;;46.49;15.92;96256.28;10099194;28;96955;-63
2022/07/21 16:03:27;;;;;;;4.10;3.40;;;;;;;46.65;15.62;96247.72;10100486;28;96924;-63
2022/07/21 16:08:32;;;;;;;4.55;3.30;;;;;;;47.11;15.27;96247.25;10101755;28;97029;-63
2022/07/21 16:13:35;;;;;;;4.72;3.72;;;;;;;47.19;15.38;96240.59;10101893;28;97455;-64
2022/07/21 16:18:38;;;;;;;4.50;3.42;;;;;;;47.16;15.38;96238.59;10100892;28;96857;-63
2022/07/21 16:23:42;;;;;;;4.47;3.40;;;;;;;47.11;15.35;96244.47;10097705;28;96892;-63
2022/07/21 16:28:45;;;;;;;3.30;3.00;;;;;;;47.36;14.82;96235.53;10104042;28;96760;-63
2022/07/21 16:33:48;;;;;;;3.88;3.40;;;;;;;46.92;15.27;96228.97;10099645;28;97389;-63
2022/07/21 16:38:53;;;;;;;3.80;3.50;;;;;;;45.74;16.23;96237.78;10111131;28;98675;-63
2022/07/21 16:43:56;;;;;;;4.00;3.60;;;;;;;46.05;16.51;96238.53;10093632;28;96941;-63
2022/07/21 16:48:59;;;;;;;4.78;3.10;;;;;;;45.58;16.40;96230.88;10103252;28;97031;-64
2022/07/21 16:54:05;;;;;;;3.70;3.35;;;;;;;45.17;16.65;96229.59;10097854;28;97009;-65
2022/07/21 16:59:14;;;;;;;4.63;3.20;;;;;;;44.83;16.90;96233.44;10101546;28;97233;-63
2022/07/21 17:04:17;;;;;;;3.92;3.55;;;;;;;44.86;17.15;96235.44;10114604;28;96902;-63
2022/07/21 17:09:21;;;;;;;3.80;3.28;;;;;;;44.72;16.63;96227.72;10112754;28;97408;-63
2022/07/21 17:14:24;;;;;;;4.93;3.55;;;;;;;44.26;17.71;96225.78;10106929;28;97131;-64
2022/07/21 17:19:27;;;;;;;3.97;3.58;;;;;;;43.64;18.01;96223.91;10101217;28;97148;-65
2022/07/21 17:24:32;;;;;;;4.10;3.70;;;;;;;43.57;17.81;96231.19;10104979;28;98985;-63
2022/07/21 17:29:34;;;;;;;4.60;4.20;;;;;;;42.91;18.56;96229.03;10107890;28;98548;-65
2022/07/21 17:34:38;;;;;;;5.32;3.75;;;;;;;42.52;18.76;96231.63;10104180;28;98216;-66
2022/07/21 17:39:43;;;;;;;4.47;4.00;;;;;;;42.40;19.00;96227.00;10100916;28;98498;-64
2022/07/21 17:44:46;;;;;;;4.50;4.10;;;;;;;41.92;20.02;96231.69;10103098;28;97185;-65
2022/07/21 17:49:49;;;;;;;4.20;3.78;;;;;;;41.03;20.07;96235.38;10105477;28;98021;-63
2022/07/21 17:54:53;;;;;;;5.00;3.80;;;;;;;40.70;20.08;96228.88;10115382;28;97075;-63
2022/07/21 17:59:56;;;;;;;4.70;3.85;;;;;;;40.35;20.76;96234.00;10109372;28;99210;-63
2022/07/21 18:05:00;;;;;;;4.47;3.72;;;;;;;39.45;20.97;96232.81;10109426;28;98619;-64
2022/07/21 18:10:06;;;;;;;3.67;3.15;;;;;;;37.65;22.87;96231.00;10101985;28;97277;-63
2022/07/21 18:15:09;;;;;;;4.95;3.90;;;;;;;35.90;24.76;96233.28;10113054;28;98109;-63
2022/07/21 18:20:12;;;;;;;4.85;4.20;;;;;;;34.40;26.43;96234.91;10118648;28;98344;-62
2022/07/21 18:25:16;;;;;;;4.57;4.13;;;;;;;33.42;28.44;96238.47;10119534;28;96942;-62
2022/07/21 18:30:20;;;;;;;5.03;4.30;;;;;;;32.91;28.38;96243.47;10129254;28;97070;-62
2022/07/21 18:35:23;;;;;;;5.05;4.55;;;;;;;32.19;29.27;96248.88;10132221;28;97014;-63
2022/07/21 18:40:27;;;;;;;5.82;4.38;;;;;;;31.60;30.40;96243.44;10132892;28;97429;-62
2022/07/21 18:45:31;;;;;;;4.22;3.40;;;;;;;31.17;30.32;96245.06;10136240;28;96876;-62
2022/07/21 18:50:35;;;;;;;5.38;3.97;;;;;;;30.72;30.97;96252.28;10121028;28;97366;-61
2022/07/21 18:55:40;;;;;;;5.38;3.92;;;;;;;30.37;31.43;96248.66;10133222;28;97201;-61
2022/07/21 19:00:42;;;;;;;8.32;4.35;;;;;;;29.86;32.73;96244.94;10142346;28;96796;-62
2022/07/21 19:05:46;;;;;;;5.55;3.63;;;;;;;29.49;32.95;96250.59;10122241;28;97746;-63
2022/07/21 19:10:50;;;;;;;4.65;3.55;;;;;;;29.24;33.11;96254.84;10120086;28;97918;-63
2022/07/21 19:15:53;;;;;;;7.85;3.50;;;;;;;29.10;33.10;96253.75;10106229;28;96901;-62
2022/07/21 19:20:56;;;;;;;5.50;3.55;;;;;;;28.91;33.71;96248.84;10128724;28;98982;-62
2022/07/21 19:26:02;;;;;;;4.22;3.67;;;;;;;28.49;34.91;96255.09;10122752;28;96838;-62
2022/07/21 19:31:05;;;;;;;3.42;2.72;;;;;;;28.13;34.94;96262.13;10123065;28;98182;-62
2022/07/21 19:36:08;;;;;;;3.90;2.65;;;;;;;27.89;35.27;96256.34;10128790;28;97135;-63
2022/07/21 19:41:12;;;;;;;4.77;3.27;;;;;;;27.75;35.39;96259.47;10132503;28;97242;-61
2022/07/21 19:46:15;;;;;;;4.40;3.08;;;;;;;27.67;36.10;96271.47;10137722;28;97273;-62
2022/07/21 19:51:18;;;;;;;4.88;3.10;;;;;;;27.54;35.80;96269.16;10149082;28;97126;-63
2022/07/21 19:56:23;;;;;;;4.03;2.97;;;;;;;27.44;35.80;96283.31;10141022;28;98163;-62
2022/07/21 20:01:26;;;;;;;5.03;3.78;;;;;;;27.20;36.58;96282.81;10143815;28;97128;-62
2022/07/21 20:06:29;;;;;;;4.03;3.10;;;;;;;27.02;37.20;96285.81;10142542;28;97660;-61
2022/07/21 20:11:37;;;;;;;4.65;3.08;;;;;;;26.88;38.44;96285.38;10133998;28;97279;-61
2022/07/21 20:16:40;;;;;;;4.97;3.10;;;;;;;26.66;38.12;96288.88;10120111;28;98409;-62
2022/07/21 20:21:43;;;;;;;3.93;3.33;;;;;;;26.37;38.36;96291.69;10127858;28;97193;-63
2022/07/21 20:26:48;;;;;;;5.17;3.10;;;;;;;26.07;39.16;96293.91;10137375;28;98196;-64
2022/07/21 20:31:51;;;;;;;4.50;2.90;;;;;;;25.78;39.30;96289.47;10117376;28;97524;-64
2022/07/21 20:36:54;;;;;;;3.40;2.63;;;;;;;25.69;39.49;96284.78;10122214;28;98450;-63
2022/07/21 20:41:58;;;;;;;5.93;3.17;;;;;;;25.60;39.48;96290.50;10125372;28;97877;-66
2022/07/21 20:47:01;;;;;;;5.05;3.30;;;;;;;25.73;39.23;96293.94;10126046;28;97951;-64
2022/07/21 20:52:04;;;;;;;4.47;3.00;;;;;;;25.73;39.35;96301.94;10120513;28;98213;-64
2022/07/21 20:57:09;;;;;;;4.80;2.85;;;;;;;25.72;39.31;96301.16;10118769;28;98037;-64
2022/07/21 21:02:14;;;;;;;3.60;3.08;;;;;;;25.68;39.50;96299.19;10117723;28;97540;-64
2022/07/21 21:07:18;;;;;;;3.70;2.87;;;;;;;25.59;39.98;96291.56;10127699;28;98711;-65
2022/07/21 21:12:23;;;;;;;4.07;2.92;;;;;;;25.42;40.42;96293.38;10124570;28;98689;-66
2022/07/21 21:17:32;;;;;;;5.07;3.15;;;;;;;25.26;40.92;96289.63;10117176;28;97780;-65
2022/07/21 21:22:36;;;;;;;4.82;3.00;;;;;;;25.17;40.90;96296.41;10113694;28;98650;-66
2022/07/21 21:27:41;;;;;;;5.63;3.30;;;;;;;25.15;40.82;96296.63;10120646;28;99136;-66
2022/07/21 21:32:44;;;;;;;4.05;2.97;;;;;;;25.09;40.83;96292.22;10119239;28;97700;-69
2022/07/21 21:37:47;;;;;;;5.20;3.33;;;;;;;25.02;41.25;96296.91;10116769;28;98500;-68
2022/07/21 21:42:51;;;;;;;4.82;3.20;;;;;;;24.91;42.22;96297.78;10109551;28;97902;-68
2022/07/21 21:47:54;;;;;;;4.53;3.45;;;;;;;24.74;42.56;96306.50;10120461;28;98299;-67
2022/07/21 21:52:57;;;;;;;4.43;3.13;;;;;;;24.58;43.14;96310.72;10123199;28;96816;-68
2022/07/21 21:58:01;;;;;;;5.57;4.05;;;;;;;24.20;43.38;96308.53;10123128;28;97720;-67
2022/07/21 22:03:04;;;;;;;5.55;3.47;;;;;;;23.86;44.43;96313.56;10126203;28;97918;-67
2022/07/21 22:08:07;;;;;;;5.13;3.80;;;;;;;23.43;45.32;96310.13;10126002;28;97559;-67
2022/07/21 22:13:12;;;;;;;4.18;3.42;;;;;;;23.32;45.71;96311.69;10125596;28;97653;-68
2022/07/21 22:18:15;;;;;;;4.10;3.47;;;;;;;23.40;45.29;96317.78;10126621;28;96778;-70
2022/07/21 22:23:17;;;;;;;5.15;3.50;;;;;;;23.41;45.41;96314.06;10124884;28;97072;-70
2022/07/21 22:28:22;;;;;;;5.25;3.70;;;;;;;23.42;45.46;96315.69;10118706;28;99460;-66
2022/07/21 22:33:25;;;;;;;4.55;3.63;;;;;;;23.36;45.86;96315.56;10124964;28;97779;-66
2022/07/21 22:38:27;;;;;;;5.88;3.97;;;;;;;23.33;46.11;96317.88;10119469;28;99437;-65
2022/07/21 22:43:32;;;;;;;5.00;3.83;;;;;;;23.27;46.62;96313.41;10139024;28;97288;-66
2022/07/21 22:48:35;;;;;;;4.82;3.92;;;;;;;23.11;47.29;96314.84;10120960;28;96972;-66
2022/07/21 22:53:38;;;;;;;4.88;3.90;;;;;;;23.04;47.30;96314.13;10131397;28;97573;-65
2022/07/21 22:58:42;;;;;;;6.32;4.32;;;;;;;23.00;47.63;96311.91;10148412;28;96792;-66
2022/07/21 23:03:45;;;;;;;6.78;4.25;;;;;;;22.89;47.85;96302.03;10144792;28;96874;-65
2022/07/21 23:08:48;;;;;;;4.30;3.90;;;;;;;22.93;47.85;96313.84;10144181;28;96900;-66
2022/07/21 23:13:52;;;;;;;4.75;3.78;;;;;;;22.91;47.02;96315.91;10129653;28;97095;-66
2022/07/21 23:18:55;;;;;;;4.80;3.78;;;;;;;22.86;47.31;96312.31;10130031;28;97008;-67
2022/07/21 23:23:59;;;;;;;4.10;3.70;;;;;;;22.74;47.44;96306.91;10123263;28;97417;-67
2022/07/21 23:29:04;;;;;;;4.13;3.72;;;;;;;22.67;47.05;96311.50;10127117;28;97622;-66
2022/07/21 23:34:07;;;;;;;4.47;4.05;;;;;;;22.62;48.40;96307.63;10129486;28;97675;-65
2022/07/21 23:39:11;;;;;;;4.80;3.90;;;;;;;22.63;48.89;96309.28;10127010;28;97452;-65